Insider Buying

 
Symbol Name Keyword
Filings for:
Note: This page automatically refreshes every three minutes.
  Symbol Owner Relationship Date Cost # Shares Value($) Total Shares Filing
Y! MCI GRACE EDWARD P III Trustee Oct 27, 2020 $11.90 4,000 47,600 12,000 Oct 27, 2020, 04:20 PM
Y! TBK Ritterbusch Todd EVP & CLO - TBK Bank, SSB Oct 23, 2020 $26.00 4,000 104,000 11,000 Oct 27, 2020, 04:15 PM
Y! GBDC Golub Lawrence E Chairman Oct 23, 2020 $13.37 9,100 121,665 1,893,990 Oct 27, 2020, 04:06 PM
Y! GBDC Golub David Chief Executive Officer Oct 26, 2020 $13.28 5,000 66,424 1,893,990 Oct 27, 2020, 04:05 PM
Y! GBDC Golub David Chief Executive Officer Oct 23, 2020 $13.47 4,100 55,241 1,888,990 Oct 27, 2020, 04:05 PM
Y! NDP Aristides Capital LLC 10% Owner Oct 26, 2020 $10.40 10,579 110,022 181,729 Oct 27, 2020, 03:13 PM
Y! NDP Aristides Capital LLC 10% Owner Oct 22, 2020 $10.63 4,528 48,133 161,461 Oct 27, 2020, 03:13 PM
Y! NDP Aristides Capital LLC 10% Owner Oct 26, 2020 $10.40 5,696 59,238 97,854 Oct 27, 2020, 03:13 PM
Y! NDP Aristides Capital LLC 10% Owner Oct 22, 2020 $10.63 2,438 25,916 86,941 Oct 27, 2020, 03:13 PM
Y! NDP Aristides Capital LLC 10% Owner Oct 23, 2020 $10.75 9,689 104,157 171,150 Oct 27, 2020, 03:13 PM
Y! NDP Aristides Capital LLC 10% Owner Oct 23, 2020 $10.75 5,217 56,083 92,158 Oct 27, 2020, 03:13 PM
Y! ISTR Baker James M Director Oct 27, 2020 $13.70 250 3,425 8,745 Oct 27, 2020, 02:49 PM
Y! FCCY CROW CHARLES S III Director Oct 23, 2020 $12.59 5,000 62,925 46,185 Oct 27, 2020, 01:59 PM
Y! PFC Nungester Paul D Jr EVP & Chief Financial Officer Oct 26, 2020 $18.77 12,000 225,240 19,228 Oct 27, 2020, 01:58 PM
Y! CCK FEARON RICHARD H Director Oct 26, 2020 $88.17 1,000 88,170 2,742 Oct 27, 2020, 01:49 PM
Y! FCCO Sosebee Jane S Director Oct 27, 2020 $14.47 800 11,575 1,867 Oct 27, 2020, 12:57 PM
Y! TSC Fetterolf Brian S CEO, TSC Bank, Director TSC Oct 27, 2020 $13.59 5,600 76,104 84,472 Oct 27, 2020, 12:31 PM
Y! CHMG Tranter G. Thomas Jr. Director Oct 26, 2020 $37.00 499 18,463 23,589 Oct 27, 2020, 12:11 PM
Y! TPL HORIZON KINETICS ASSET MANAGEMENT LLC 10% Owner Oct 26, 2020 $472.98 14 6,622 277,238 Oct 27, 2020, 11:54 AM
Y! RCG STAHL MURRAY President & CEO Oct 26, 2020 $1.40 300 421 53,409 Oct 27, 2020, 11:38 AM
Y! RCG STAHL MURRAY President & CEO Oct 26, 2020 $1.40 300 421 53,109 Oct 27, 2020, 11:38 AM
Y! RCG STAHL MURRAY President & CEO Oct 26, 2020 $1.41 75 105 52,809 Oct 27, 2020, 11:38 AM
Y! HIE Saba Capital Management, L.P. 10% Owner Oct 23, 2020 $6.26 23,547 147,404 1,968,745 Oct 27, 2020, 11:27 AM
Y! HIE Saba Capital Management, L.P. 10% Owner Oct 26, 2020 $6.20 11,779 73,030 1,980,524 Oct 27, 2020, 11:27 AM
Y! EFT Saba Capital Management, L.P. 10% Owner Oct 26, 2020 $12.73 237,683 3,025,704 5,115,957 Oct 27, 2020, 11:23 AM
Y! EFT Saba Capital Management, L.P. 10% Owner Oct 23, 2020 $12.86 31,420 404,061 4,878,274 Oct 27, 2020, 11:23 AM
Y! NVR Jung Alexandra A Director Oct 23, 2020 $4211.37 30 126,341 125 Oct 27, 2020, 10:13 AM
Y! TIPT Barnes Michael Gene Executive Chairman Oct 26, 2020 $5.22 2,466 12,880 8,616,717 Oct 27, 2020, 10:04 AM
Y! TIPT Barnes Michael Gene Executive Chairman Oct 23, 2020 $5.27 2,477 13,056 8,614,251 Oct 27, 2020, 10:04 AM
Y! BOTJ BRYANT WILLIAM C III Director Oct 26, 2020 $10.35 947 9,801 35,661 Oct 27, 2020, 08:54 AM
Y! WINT Huang James Director Oct 23, 2020 $6.67 1,000 6,666 21,000 Oct 27, 2020, 06:02 AM
Y! ESXB Harris Ira C Director Oct 22, 2020 $5.21 395 2,058 854 Oct 26, 2020, 08:35 PM
Y! NDP Aristides Capital LLC 10% Owner Oct 22, 2020 $10.63 2,438 25,916 86,941 Oct 26, 2020, 07:58 PM
Y! NDP Aristides Capital LLC 10% Owner Oct 23, 2020 $10.75 9,689 104,157 171,150 Oct 26, 2020, 07:58 PM
Y! NDP Aristides Capital LLC 10% Owner Oct 23, 2020 $10.75 5,217 56,083 92,158 Oct 26, 2020, 07:58 PM
Y! NDP Aristides Capital LLC 10% Owner Oct 26, 2020 $10.40 10,579 110,022 181,729 Oct 26, 2020, 07:58 PM
Y! NDP Aristides Capital LLC 10% Owner Oct 22, 2020 $10.63 4,528 48,133 161,461 Oct 26, 2020, 07:58 PM
Y! NDP Aristides Capital LLC 10% Owner Oct 26, 2020 $10.40 5,696 59,238 97,854 Oct 26, 2020, 07:58 PM
Y! CYDY Colachis Arian GC and Corporate Secretary Oct 23, 2020 $2.50 10,000 25,000 80,000 Oct 26, 2020, 07:54 PM
Y! CYDY Naydenov Jordan G Director Oct 23, 2020 $2.49 120,000 298,308 6,257,823 Oct 26, 2020, 07:45 PM
Y! WINT Huang James Director Jun 04, 2020 $7.32 12,000 87,868 20,000 Oct 26, 2020, 06:26 PM
Y! ARWR De Backer Marianne Director Oct 08, 2020 $50.47 1,000 50,465 17,500 Oct 26, 2020, 06:02 PM
Y! HQL OMSTEAD DANIEL R President Oct 26, 2020 $17.52 6,175 108,204 131,836 Oct 26, 2020, 05:27 PM
Y! HQH OMSTEAD DANIEL R President Oct 26, 2020 $20.53 5,200 106,744 125,411 Oct 26, 2020, 05:26 PM
Y! DTRC Morrison Alex G Director Oct 23, 2020 $0.43 8,650 3,676 108,650 Oct 26, 2020, 05:10 PM
Y! CCEL PORTNOY DAVID Chairman, Co-CEO Oct 22, 2020 $7.85 1,097 8,606 94,426 Oct 26, 2020, 05:04 PM
Y! CCEL PORTNOY DAVID Chairman, Co-CEO Oct 26, 2020 $7.77 2,000 15,542 445,491 Oct 26, 2020, 05:04 PM
Y! CCEL PORTNOY DAVID Chairman, Co-CEO Oct 22, 2020 $7.80 1,000 7,800 88,364 Oct 26, 2020, 05:04 PM
Y! CCEL PORTNOY DAVID Chairman, Co-CEO Oct 23, 2020 $7.63 800 6,104 443,491 Oct 26, 2020, 05:04 PM
Y! CCEL PORTNOY DAVID Chairman, Co-CEO Oct 22, 2020 $7.80 5,000 39,000 442,691 Oct 26, 2020, 05:04 PM
Y! SMBK Welborn Wesley Miller CHAIRMAN OF THE BOARD Oct 23, 2020 $14.71 1,796 26,419 64,223 Oct 26, 2020, 04:54 PM
Y! BTN Fundamental Global Investors, LLC Director Oct 23, 2020 $1.53 444 680 213,152 Oct 26, 2020, 04:40 PM
Y! BTN Fundamental Global Investors, LLC Director Oct 23, 2020 $1.53 826 1,265 2,082,487 Oct 26, 2020, 04:40 PM
Y! BTN Fundamental Global Investors, LLC Director Oct 22, 2020 $1.53 1,547 2,365 212,708 Oct 26, 2020, 04:40 PM
Y! BTN Fundamental Global Investors, LLC Director Oct 22, 2020 $1.53 2,873 4,392 2,081,661 Oct 26, 2020, 04:40 PM
Y! ORRF Holt Christopher D Executive Vice President Oct 23, 2020 $14.00 500 7,000 8,900 Oct 26, 2020, 04:29 PM
Y! TRNF Wilson Tyler B. CFO/Treasurer/Secretary Oct 26, 2020 $0.12 1,041,667 125,000 4,930,107 Oct 26, 2020, 04:24 PM
Y! TRNF MAHONEY SCOTT Chief Executive Officer Oct 26, 2020 $0.12 2,633,866 316,064 16,425,285 Oct 26, 2020, 04:12 PM
Y! TRNF Dingess, Robert L. Director Oct 26, 2020 $0.12 833,333 100,000 4,549,710 Oct 26, 2020, 04:11 PM
Y! TZOO AZZURRO CAPITAL INC 10% Owner Oct 22, 2020 $7.80 50,000 390,000 4,518,125 Oct 26, 2020, 04:10 PM
Y! UBA Colley Bryan O. Director Oct 23, 2020 $9.81 8,200 80,467 13,415 Oct 26, 2020, 04:09 PM
Y! CBKM WILLIAMS DEREK G SVP, Retail Operations & Sales Oct 26, 2020 $16.25 500 8,125 5,738 Oct 26, 2020, 03:34 PM
Y! USAP ZIMMER CHRISTOPHER M EVP, Chief Commercial Officer Oct 26, 2020 $5.64 45,823 258,442 108,460 Oct 26, 2020, 02:54 PM
Y! RCG STAHL MURRAY President and CEO Oct 23, 2020 $1.42 300 427 52,734 Oct 26, 2020, 12:05 PM
Y! RCG STAHL MURRAY President and CEO Oct 23, 2020 $1.42 300 427 52,434 Oct 26, 2020, 12:05 PM
Y! RCG STAHL MURRAY President and CEO Oct 23, 2020 $1.43 75 107 52,134 Oct 26, 2020, 12:05 PM
Y! TPL HORIZON KINETICS ASSET MANAGEMENT LLC 10% Owner Oct 23, 2020 $477.98 14 6,692 277,224 Oct 26, 2020, 11:49 AM
Y! BOTJ CHAPMAN ROBERT R President Oct 23, 2020 $10.21 157 1,604 97,461 Oct 26, 2020, 11:32 AM
Y! NTRP SCHECHTER JONATHAN Director Oct 22, 2020 $1.10 25,000 27,500 50,000 Oct 26, 2020, 09:00 AM
Y! TMTSU Edidin Eric J Director Oct 22, 2020 $9.92 5,000 49,600 65,000 Oct 26, 2020, 08:00 AM
Y! ADC Agree Joey President & CEO Oct 23, 2020 $65.79 8,058 530,136 388,520 Oct 26, 2020, 06:01 AM
Y! ADC Agree Joey President & CEO Oct 22, 2020 $65.58 7,235 474,471 380,462 Oct 26, 2020, 06:01 AM
Y! TCON Opaleye Management Inc. 10% Owner Oct 21, 2020 $4.40 3,000 13,191 225,000 Oct 23, 2020, 09:30 PM
Y! TCON Opaleye Management Inc. 10% Owner Oct 21, 2020 $4.40 5,656 24,869 1,797,094 Oct 23, 2020, 09:30 PM
Y! FCBP Dang Khoi EVP & General Counsel Oct 23, 2020 $14.34 3,470 49,764 3,470 Oct 23, 2020, 08:27 PM
Y! GPV Atkinson Fraser CEO and Chairman Oct 22, 2020 $12.55 5,000 62,750 1,107,051 Oct 23, 2020, 08:20 PM
Y! NRGX IVASCYN DANIEL J SEE REMARKS Oct 22, 2020 $6.35 1,322 8,389 751,001 Oct 23, 2020, 06:42 PM
Y! GTX HAWK RIDGE CAPITAL MANAGEMENT LP Member of 10% owner group Oct 23, 2020 $2.80 124,800 349,440 2,336,564 Oct 23, 2020, 06:27 PM
Y! GTX HAWK RIDGE CAPITAL MANAGEMENT LP Member of 10% owner group Oct 21, 2020 $2.80 100,000 280,000 2,211,764 Oct 23, 2020, 06:27 PM
Y! DSNY Graber Mark A 10% Owner Oct 22, 2020 $0.63 83,274 52,379 1,668,765 Oct 23, 2020, 05:46 PM
Y! DSNY Graber Mark A 10% Owner Oct 23, 2020 $0.63 49,000 30,968 1,717,765 Oct 23, 2020, 05:46 PM
Y! NML Rachlin Douglas A. Portfolio Manager Oct 21, 2020 $2.55 50,000 127,695 100,000 Oct 23, 2020, 05:22 PM
Y! SELB SPRINGER TIMOTHY A Director Oct 22, 2020 $2.63 1,770,204 4,656,699 13,486,460 Oct 23, 2020, 05:12 PM
Y! SELB SPRINGER TIMOTHY A Director Oct 21, 2020 $2.50 880,000 2,199,472 11,716,256 Oct 23, 2020, 05:12 PM
Y! SELB SPRINGER TIMOTHY A Director Oct 23, 2020 $2.71 994,488 2,699,737 14,480,948 Oct 23, 2020, 05:12 PM
Y! DTRC Morrison Alex G Director Oct 21, 2020 $0.41 8,000 3,304 100,000 Oct 23, 2020, 04:39 PM
Y! CDAK Alaska Permanent Fund Corp 10% Owner Oct 16, 2020 $15.00 235,000 3,525,000 4,512,895 Oct 23, 2020, 02:38 PM
Y! FAF OMAN MARK C Director Oct 23, 2020 $47.78 4,000 191,125 38,092 Oct 23, 2020, 01:29 PM
Y! GBDC Golub David Chief Executive Officer Oct 22, 2020 $13.32 5,000 66,594 1,884,890 Oct 23, 2020, 01:26 PM
Y! GBDC Golub David Chief Executive Officer Oct 21, 2020 $13.10 5,000 65,481 1,879,890 Oct 23, 2020, 01:26 PM
Y! GBDC Golub Lawrence E Chairman Oct 22, 2020 $13.32 5,000 66,594 1,884,890 Oct 23, 2020, 01:25 PM
Y! GBDC Golub Lawrence E Chairman Oct 21, 2020 $13.10 5,000 65,481 1,879,890 Oct 23, 2020, 01:25 PM
Y! RCG STAHL MURRAY President and CEO Oct 22, 2020 $1.41 75 106 51,459 Oct 23, 2020, 12:56 PM
Y! RCG STAHL MURRAY President and CEO Oct 22, 2020 $1.41 300 422 52,059 Oct 23, 2020, 12:56 PM
Y! RCG STAHL MURRAY President and CEO Oct 22, 2020 $1.41 300 422 51,759 Oct 23, 2020, 12:56 PM
Y! TPL HORIZON KINETICS ASSET MANAGEMENT LLC 10% Owner Oct 22, 2020 $479.17 14 6,708 277,210 Oct 23, 2020, 12:28 PM
Y! CADE EVANS JOSEPH W Director Oct 23, 2020 $12.11 4,000 48,440 404,229 Oct 23, 2020, 11:58 AM
Y! OVLY Leonard Daniel J Director Oct 22, 2020 $16.00 125 2,000 53,230 Oct 23, 2020, 11:49 AM
Y! HIE Saba Capital Management, L.P. 10% Owner Oct 22, 2020 $6.26 11,212 70,187 1,945,198 Oct 23, 2020, 10:14 AM
Y! HIE Saba Capital Management, L.P. 10% Owner Oct 21, 2020 $6.26 47,811 299,297 1,933,986 Oct 23, 2020, 10:14 AM
Next : Last
 
Symbol Name Keyword
Filings for:
Note: This page automatically refreshes every three minutes.
Desktop Version
Symbol Owner Relationship Date Value($)
MCI GRACE EDWARD P III Trustee Oct 27, 2020 47,600
TBK Ritterbusch Todd EVP & CLO - TBK Bank, SSB Oct 23, 2020 104,000
GBDC Golub Lawrence E Chairman Oct 23, 2020 121,665
GBDC Golub David Chief Executive Officer Oct 26, 2020 66,424
GBDC Golub David Chief Executive Officer Oct 23, 2020 55,241
NDP Aristides Capital LLC 10% Owner Oct 26, 2020 110,022
NDP Aristides Capital LLC 10% Owner Oct 22, 2020 48,133
NDP Aristides Capital LLC 10% Owner Oct 26, 2020 59,238
NDP Aristides Capital LLC 10% Owner Oct 22, 2020 25,916
NDP Aristides Capital LLC 10% Owner Oct 23, 2020 104,157
NDP Aristides Capital LLC 10% Owner Oct 23, 2020 56,083
ISTR Baker James M Director Oct 27, 2020 3,425
FCCY CROW CHARLES S III Director Oct 23, 2020 62,925
PFC Nungester Paul D Jr EVP & Chief Financial Officer Oct 26, 2020 225,240
CCK FEARON RICHARD H Director Oct 26, 2020 88,170
FCCO Sosebee Jane S Director Oct 27, 2020 11,575
TSC Fetterolf Brian S CEO, TSC Bank, Director TSC Oct 27, 2020 76,104
CHMG Tranter G. Thomas Jr. Director Oct 26, 2020 18,463
TPL HORIZON KINETICS ASSET MANAGEMENT LLC 10% Owner Oct 26, 2020 6,622
RCG STAHL MURRAY President & CEO Oct 26, 2020 421
RCG STAHL MURRAY President & CEO Oct 26, 2020 421
RCG STAHL MURRAY President & CEO Oct 26, 2020 105
HIE Saba Capital Management, L.P. 10% Owner Oct 23, 2020 147,404
HIE Saba Capital Management, L.P. 10% Owner Oct 26, 2020 73,030
EFT Saba Capital Management, L.P. 10% Owner Oct 26, 2020 3,025,704
EFT Saba Capital Management, L.P. 10% Owner Oct 23, 2020 404,061
NVR Jung Alexandra A Director Oct 23, 2020 126,341
TIPT Barnes Michael Gene Executive Chairman Oct 26, 2020 12,880
TIPT Barnes Michael Gene Executive Chairman Oct 23, 2020 13,056
BOTJ BRYANT WILLIAM C III Director Oct 26, 2020 9,801
WINT Huang James Director Oct 23, 2020 6,666
ESXB Harris Ira C Director Oct 22, 2020 2,058
NDP Aristides Capital LLC 10% Owner Oct 22, 2020 25,916
NDP Aristides Capital LLC 10% Owner Oct 23, 2020 104,157
NDP Aristides Capital LLC 10% Owner Oct 23, 2020 56,083
NDP Aristides Capital LLC 10% Owner Oct 26, 2020 110,022
NDP Aristides Capital LLC 10% Owner Oct 22, 2020 48,133
NDP Aristides Capital LLC 10% Owner Oct 26, 2020 59,238
CYDY Colachis Arian GC and Corporate Secretary Oct 23, 2020 25,000
CYDY Naydenov Jordan G Director Oct 23, 2020 298,308
WINT Huang James Director Jun 04, 2020 87,868
ARWR De Backer Marianne Director Oct 08, 2020 50,465
HQL OMSTEAD DANIEL R President Oct 26, 2020 108,204
HQH OMSTEAD DANIEL R President Oct 26, 2020 106,744
DTRC Morrison Alex G Director Oct 23, 2020 3,676
CCEL PORTNOY DAVID Chairman, Co-CEO Oct 22, 2020 8,606
CCEL PORTNOY DAVID Chairman, Co-CEO Oct 26, 2020 15,542
CCEL PORTNOY DAVID Chairman, Co-CEO Oct 22, 2020 7,800
CCEL PORTNOY DAVID Chairman, Co-CEO Oct 23, 2020 6,104
CCEL PORTNOY DAVID Chairman, Co-CEO Oct 22, 2020 39,000
SMBK Welborn Wesley Miller CHAIRMAN OF THE BOARD Oct 23, 2020 26,419
BTN Fundamental Global Investors, LLC Director Oct 23, 2020 680
BTN Fundamental Global Investors, LLC Director Oct 23, 2020 1,265
BTN Fundamental Global Investors, LLC Director Oct 22, 2020 2,365
BTN Fundamental Global Investors, LLC Director Oct 22, 2020 4,392
ORRF Holt Christopher D Executive Vice President Oct 23, 2020 7,000
TRNF Wilson Tyler B. CFO/Treasurer/Secretary Oct 26, 2020 125,000
TRNF MAHONEY SCOTT Chief Executive Officer Oct 26, 2020 316,064
TRNF Dingess, Robert L. Director Oct 26, 2020 100,000
TZOO AZZURRO CAPITAL INC 10% Owner Oct 22, 2020 390,000
UBA Colley Bryan O. Director Oct 23, 2020 80,467
CBKM WILLIAMS DEREK G SVP, Retail Operations & Sales Oct 26, 2020 8,125
USAP ZIMMER CHRISTOPHER M EVP, Chief Commercial Officer Oct 26, 2020 258,442
RCG STAHL MURRAY President and CEO Oct 23, 2020 427
RCG STAHL MURRAY President and CEO Oct 23, 2020 427
RCG STAHL MURRAY President and CEO Oct 23, 2020 107
TPL HORIZON KINETICS ASSET MANAGEMENT LLC 10% Owner Oct 23, 2020 6,692
BOTJ CHAPMAN ROBERT R President Oct 23, 2020 1,604
NTRP SCHECHTER JONATHAN Director Oct 22, 2020 27,500
TMTSU Edidin Eric J Director Oct 22, 2020 49,600
ADC Agree Joey President & CEO Oct 23, 2020 530,136
ADC Agree Joey President & CEO Oct 22, 2020 474,471
TCON Opaleye Management Inc. 10% Owner Oct 21, 2020 13,191
TCON Opaleye Management Inc. 10% Owner Oct 21, 2020 24,869
FCBP Dang Khoi EVP & General Counsel Oct 23, 2020 49,764
GPV Atkinson Fraser CEO and Chairman Oct 22, 2020 62,750
NRGX IVASCYN DANIEL J SEE REMARKS Oct 22, 2020 8,389
GTX HAWK RIDGE CAPITAL MANAGEMENT LP Member of 10% owner group Oct 23, 2020 349,440
GTX HAWK RIDGE CAPITAL MANAGEMENT LP Member of 10% owner group Oct 21, 2020 280,000
DSNY Graber Mark A 10% Owner Oct 22, 2020 52,379
DSNY Graber Mark A 10% Owner Oct 23, 2020 30,968
NML Rachlin Douglas A. Portfolio Manager Oct 21, 2020 127,695
SELB SPRINGER TIMOTHY A Director Oct 22, 2020 4,656,699
SELB SPRINGER TIMOTHY A Director Oct 21, 2020 2,199,472
SELB SPRINGER TIMOTHY A Director Oct 23, 2020 2,699,737
DTRC Morrison Alex G Director Oct 21, 2020 3,304
CDAK Alaska Permanent Fund Corp 10% Owner Oct 16, 2020 3,525,000
FAF OMAN MARK C Director Oct 23, 2020 191,125
GBDC Golub David Chief Executive Officer Oct 22, 2020 66,594
GBDC Golub David Chief Executive Officer Oct 21, 2020 65,481
GBDC Golub Lawrence E Chairman Oct 22, 2020 66,594
GBDC Golub Lawrence E Chairman Oct 21, 2020 65,481
RCG STAHL MURRAY President and CEO Oct 22, 2020 106
RCG STAHL MURRAY President and CEO Oct 22, 2020 422
RCG STAHL MURRAY President and CEO Oct 22, 2020 422
TPL HORIZON KINETICS ASSET MANAGEMENT LLC 10% Owner Oct 22, 2020 6,708
CADE EVANS JOSEPH W Director Oct 23, 2020 48,440
OVLY Leonard Daniel J Director Oct 22, 2020 2,000
HIE Saba Capital Management, L.P. 10% Owner Oct 22, 2020 70,187
HIE Saba Capital Management, L.P. 10% Owner Oct 21, 2020 299,297
Next : Last